EGNR/CEG METAR and TAF weather

Enter ICAO airport designator
Station Type Date Time Source
EGNR METAR 2022/01/23 11:20 UTC NOAA

EGNR 231120Z 16008KT 9999 OVC026 06/03 Q1035


Station Type Date Time Source
EGNR Decoded METAR 2022/01/23 11:20 UTC NOAA

Hawarden, United Kingdom (EGNR) 53-10N 002-59W 0M
Jan 23, 2022 - 06:20 AM EST / 2022.01.23 1120 UTC
Wind: from the SSE (160 degrees) at 9 MPH (8 KT):0
Visibility: greater than 7 mile(s):0
Sky conditions: overcast
Temperature: 42 F (6 C)
Dew Point: 37 F (3 C)
Relative Humidity: 81%
Pressure (altimeter): 30.56 in. Hg (1035 hPa)
ob: EGNR 231120Z 16008KT 9999 OVC026 06/03 Q1035
cycle: 11

Station Type Date Time Source
EGNR TAF 2016/01/23 12:00 UTC NOAA

TAF EGNR 231059Z 2312/2319 15009KT 9999 FEW020
BECMG 2316/2319 BKN014
TEMPO 2317/2319 6000 RA BKN008

Example: see airport list